Lamont, Canada
Current Conditions -  °F | °C
As of 6:00 PM on Saturday 22 Nov 2014 (Local Time) from CYED Reporting Station
Light Snow Light Snow  
Wind Chill: 14°   Ceiling: 2100
Heat Index: 21°   Visibility: 1.5mi
Dew Point: 18°   Wind: 6mph
Humidity: 86%   Direction: 320°NW
Pressure: 29.47"   Gusts: NA
Location:  53.75°N, 112.78°W
Report Text: CYED 230100Z AUTO 32005KT 1 1/2SM -SN OVC021 M06/M08 A2947 RMKSLP012
Loading
Personal Weather Stations






























Interactive Weather Map New forecast layout! Learn more

10-Day Weather Forecast

Advertisements
Track Severe Weather on mobile